Terminal Aerodrome Forecast
Issued by NWS Missoula, MT

Home | Current Version | Previous Version | Text Only | Print | Product List | Glossary On
Versions: 1 2 3 4 5 6 7 8 9 10 11 12 13 14 15 16
000
FTUS45 KMSO 251745
TAFGPI
TAF
KGPI 251745Z 2518/2618 18011KT P6SM -SHRA BKN050
     FM252100 VRB06G25KT P6SM VCTS BKN080CB
     FM260000 18007KT P6SM -SHRA BKN080
     FM260500 VRB06KT P6SM BKN100=

USA.gov is the U.S. government's official web portal to all federal, state and local government web resources and services.